createdAt,value
2018-06-03T00:01:40.683Z,99.90
2018-06-03T00:04:15.815Z,99.90
2018-06-03T00:06:50.006Z,99.90
2018-06-03T00:09:24.454Z,99.90
2018-06-03T00:12:00.007Z,99.50
2018-06-03T00:14:35.447Z,99.50
2018-06-03T00:23:34.793Z,99.90
2018-06-03T00:26:08.666Z,99.90
2018-06-03T00:28:43.409Z,99.90
2018-06-03T00:31:17.304Z,99.90
2018-06-03T00:33:52.251Z,99.90
2018-06-03T00:36:38.092Z,99.90
2018-06-03T00:39:12.130Z,99.90
2018-06-03T00:41:46.815Z,99.90
2018-06-03T00:44:20.852Z,99.90
2018-06-03T00:46:54.882Z,99.90
2018-06-03T00:49:29.645Z,99.90
2018-06-03T00:52:03.707Z,99.90
2018-06-03T00:54:37.571Z,99.90
2018-06-03T00:57:11.731Z,99.90
2018-06-03T00:59:46.151Z,99.90
2018-06-03T01:02:20.064Z,99.90
2018-06-03T01:04:53.969Z,99.90
2018-06-03T01:07:27.980Z,99.90
2018-06-03T01:10:01.738Z,99.90
2018-06-03T01:12:35.747Z,99.90
2018-06-03T01:15:09.784Z,99.90
2018-06-03T01:17:43.810Z,99.90
2018-06-03T01:20:18.361Z,99.90
2018-06-03T01:22:52.983Z,99.90
2018-06-03T01:25:26.830Z,99.90
2018-06-03T01:28:00.686Z,99.90
2018-06-03T01:30:34.749Z,99.90
2018-06-03T01:33:09.561Z,99.90
2018-06-03T01:35:43.517Z,99.90
2018-06-03T01:38:17.555Z,99.90
2018-06-03T01:40:51.334Z,99.90
2018-06-03T01:43:26.185Z,99.90
2018-06-03T01:46:00.866Z,99.90
2018-06-03T01:48:34.670Z,99.90
2018-06-03T01:51:08.449Z,99.90
2018-06-03T01:53:42.517Z,99.90
2018-06-03T01:56:16.342Z,99.90
2018-06-03T01:58:50.982Z,99.90
2018-06-03T02:01:24.729Z,99.90
2018-06-03T02:03:58.631Z,99.90
2018-06-03T02:06:32.460Z,99.90
2018-06-03T02:09:06.414Z,99.90
2018-06-03T02:11:40.456Z,99.90
2018-06-03T02:14:15.418Z,99.90
2018-06-03T02:16:49.270Z,99.90
2018-06-03T02:19:23.094Z,99.90
2018-06-03T02:21:57.475Z,99.90
2018-06-03T02:24:31.510Z,99.90
2018-06-03T02:27:06.053Z,99.90
2018-06-03T02:29:40.107Z,99.90
2018-06-03T02:32:14.092Z,99.90
2018-06-03T02:34:48.080Z,99.90
2018-06-03T02:37:21.911Z,99.90
2018-06-03T02:39:55.880Z,99.90
2018-06-03T02:42:29.825Z,99.90
2018-06-03T02:45:03.763Z,99.90
2018-06-03T02:47:37.499Z,99.90
2018-06-03T02:50:11.552Z,99.90
2018-06-03T02:52:45.825Z,99.90
2018-06-03T02:55:20.238Z,99.90
2018-06-03T02:57:55.017Z,99.90
2018-06-03T03:00:28.857Z,99.90
2018-06-03T03:03:02.940Z,99.90
2018-06-03T03:05:36.994Z,99.90
2018-06-03T03:08:10.926Z,99.90
2018-06-03T03:10:44.663Z,99.90
2018-06-03T03:13:18.436Z,99.90
2018-06-03T03:15:52.480Z,99.90
2018-06-03T03:18:27.243Z,99.90
2018-06-03T03:21:01.121Z,99.90
2018-06-03T03:23:35.436Z,99.90
2018-06-03T03:26:09.315Z,99.90
2018-06-03T03:28:43.222Z,99.90
2018-06-03T03:31:17.407Z,99.90
2018-06-03T03:33:51.279Z,99.90
2018-06-03T03:36:25.390Z,99.90
2018-06-03T03:38:59.596Z,99.90
2018-06-03T03:41:34.298Z,99.90
2018-06-03T03:44:09.331Z,99.90
2018-06-03T03:46:43.146Z,99.90
2018-06-03T03:49:17.084Z,99.90
2018-06-03T03:51:51.988Z,99.90
2018-06-03T03:54:25.810Z,99.90
2018-06-03T03:56:59.706Z,99.90
2018-06-03T03:59:33.625Z,99.90
2018-06-03T04:02:07.644Z,99.90
2018-06-03T04:04:42.147Z,99.90
2018-06-03T04:07:16.029Z,99.90
2018-06-03T04:09:50.285Z,99.90
2018-06-03T04:12:24.158Z,99.90
2018-06-03T04:14:58.313Z,99.90
2018-06-03T04:17:32.109Z,99.90
2018-06-03T04:20:06.244Z,99.90
2018-06-03T04:22:40.308Z,99.90
2018-06-03T04:25:15.150Z,99.90
2018-06-03T04:27:49.634Z,99.90
2018-06-03T04:30:23.413Z,99.90
2018-06-03T04:32:57.400Z,99.90
2018-06-03T04:35:31.432Z,99.90
2018-06-03T04:38:05.408Z,99.90
2018-06-03T04:40:39.229Z,99.90
2018-06-03T04:43:13.104Z,99.90
2018-06-03T04:45:46.833Z,99.90
2018-06-03T04:48:20.726Z,99.90
2018-06-03T04:50:54.678Z,99.90
2018-06-03T04:53:28.590Z,99.90
2018-06-03T04:56:02.585Z,99.90
2018-06-03T04:58:36.609Z,99.90
2018-06-03T05:01:11.295Z,99.90
2018-06-03T05:03:45.495Z,99.90
2018-06-03T05:06:19.999Z,99.90
2018-06-03T05:08:54.125Z,99.90
2018-06-03T05:11:28.184Z,99.90
2018-06-03T05:14:02.523Z,99.90
2018-06-03T05:16:37.175Z,99.90
2018-06-03T05:19:11.123Z,99.90
2018-06-03T05:21:44.934Z,99.90
2018-06-03T05:24:19.165Z,99.90
2018-06-03T05:26:53.995Z,99.90
2018-06-03T05:29:27.855Z,99.90
2018-06-03T05:32:01.901Z,99.50
2018-06-03T05:34:36.050Z,99.10
2018-06-03T05:37:10.088Z,98.60
2018-06-03T05:42:24.309Z,98.10
2018-06-03T05:44:58.134Z,97.80
2018-06-03T05:47:31.961Z,98.10
2018-06-03T05:50:05.809Z,97.30
2018-06-03T05:52:39.760Z,96.70
2018-06-03T05:55:13.636Z,96.20
2018-06-03T05:57:48.721Z,95.40
2018-06-03T06:00:22.825Z,95.30
2018-06-03T06:02:57.540Z,93.10
2018-06-03T06:05:32.139Z,92.30
2018-06-03T06:08:05.990Z,92.30
2018-06-03T06:10:40.448Z,92.50
2018-06-03T06:13:14.258Z,92.40
2018-06-03T06:15:48.008Z,92.50
2018-06-03T06:18:21.754Z,91.30
2018-06-03T06:20:56.337Z,91.40
2018-06-03T06:23:30.750Z,91.40
2018-06-03T06:26:05.268Z,91.70
2018-06-03T06:28:38.995Z,92.60
2018-06-03T06:31:12.884Z,92.30
2018-06-03T06:33:46.780Z,92.00
2018-06-03T06:36:20.711Z,91.00
2018-06-03T06:38:54.731Z,91.10
2018-06-03T06:41:28.891Z,91.80
2018-06-03T06:44:02.687Z,91.80
2018-06-03T06:46:36.542Z,92.30
2018-06-03T06:49:10.493Z,92.30
2018-06-03T06:51:44.327Z,92.60
2018-06-03T06:54:18.212Z,92.70
2018-06-03T06:56:52.063Z,92.10
2018-06-03T06:59:26.709Z,92.70
2018-06-03T07:02:01.337Z,91.90
2018-06-03T07:04:35.694Z,91.80
2018-06-03T07:07:09.949Z,91.40
2018-06-03T07:09:43.761Z,90.50
2018-06-03T07:12:17.614Z,91.00
2018-06-03T07:14:51.287Z,90.60
2018-06-03T07:17:25.239Z,90.30
2018-06-03T07:19:59.020Z,91.30
2018-06-03T07:22:32.869Z,90.70
2018-06-03T07:25:06.655Z,90.40
2018-06-03T07:27:40.567Z,89.20
2018-06-03T07:30:14.253Z,87.10
2018-06-03T07:32:48.197Z,86.80
2018-06-03T07:35:22.057Z,86.30
2018-06-03T07:37:55.997Z,86.30
2018-06-03T07:40:29.923Z,86.30
2018-06-03T07:43:04.600Z,85.00
2018-06-03T07:45:38.550Z,85.00
2018-06-03T07:48:12.211Z,85.50
2018-06-03T07:50:46.125Z,85.60
2018-06-03T07:53:20.025Z,84.40
2018-06-03T07:55:53.959Z,82.00
2018-06-03T07:58:27.703Z,79.80
2018-06-03T08:01:01.501Z,81.10
2018-06-03T08:03:35.283Z,82.80
2018-06-03T08:06:09.139Z,82.50
2018-06-03T08:08:43.006Z,83.10
2018-06-03T08:11:16.783Z,78.60
2018-06-03T08:13:50.695Z,76.80
2018-06-03T08:16:24.430Z,75.20
2018-06-03T08:18:58.252Z,74.30
2018-06-03T08:21:32.160Z,77.00
2018-06-03T08:24:05.902Z,79.10
2018-06-03T08:27:13.853Z,80.60
2018-06-03T08:32:23.030Z,66.60
2018-06-03T08:34:57.792Z,61.90
2018-06-03T08:37:32.630Z,60.50
2018-06-03T08:40:07.256Z,57.80
2018-06-03T08:42:42.087Z,57.00
2018-06-03T08:45:16.816Z,55.30
2018-06-03T08:47:51.631Z,55.40
2018-06-03T08:50:26.543Z,55.20
2018-06-03T08:53:01.352Z,55.20
2018-06-03T08:55:36.222Z,54.10
2018-06-03T08:58:10.911Z,55.80
2018-06-03T09:00:45.849Z,55.60
2018-06-03T09:03:20.758Z,52.60
2018-06-03T09:05:55.430Z,53.90
2018-06-03T09:08:30.276Z,53.20
2018-06-03T09:11:05.118Z,52.30
2018-06-03T09:13:40.636Z,51.00
2018-06-03T09:16:16.065Z,50.90
2018-06-03T09:18:50.726Z,50.90
2018-06-03T09:21:25.344Z,50.50
2018-06-03T09:24:00.577Z,49.00
2018-06-03T09:26:35.267Z,47.30
2018-06-03T09:29:10.225Z,46.50
2018-06-03T09:31:45.153Z,46.70
2018-06-03T09:34:20.225Z,46.20
2018-06-03T09:36:55.053Z,46.50
2018-06-03T09:39:29.731Z,49.20
2018-06-03T09:42:04.585Z,50.00
2018-06-03T09:44:39.623Z,49.30
2018-06-03T09:47:15.180Z,46.60
2018-06-03T09:49:50.014Z,46.20
2018-06-03T09:52:24.668Z,44.10
2018-06-03T09:54:59.550Z,46.20
2018-06-03T09:57:34.465Z,45.00
2018-06-03T10:00:09.456Z,45.70
2018-06-03T10:02:45.091Z,42.80
2018-06-03T10:05:19.924Z,42.00
2018-06-03T10:07:54.740Z,41.50
2018-06-03T10:10:29.527Z,41.60
2018-06-03T10:13:04.391Z,42.80
2018-06-03T10:15:39.182Z,44.80
2018-06-03T10:18:13.845Z,48.10
2018-06-03T10:20:48.619Z,45.50
2018-06-03T10:23:23.409Z,42.20
2018-06-03T10:25:58.769Z,40.40
2018-06-03T10:28:33.815Z,39.10
2018-06-03T10:31:10.081Z,36.30
2018-06-03T10:33:44.781Z,38.40
2018-06-03T10:36:19.607Z,46.10
2018-06-03T10:38:54.457Z,45.70
2018-06-03T10:41:29.121Z,40.10
2018-06-03T10:44:03.960Z,38.00
2018-06-03T10:46:38.858Z,37.10
2018-06-03T10:49:13.706Z,35.00
2018-06-03T10:51:48.450Z,33.80
2018-06-03T10:54:23.230Z,33.30
2018-06-03T10:59:33.573Z,37.50
2018-06-03T11:02:08.568Z,42.00
2018-06-03T11:04:43.467Z,45.40
2018-06-03T11:07:18.450Z,46.00
2018-06-03T11:09:53.440Z,39.20
2018-06-03T11:12:28.424Z,39.00
2018-06-03T11:15:03.271Z,41.00
2018-06-03T11:17:38.262Z,39.60
2018-06-03T11:22:47.899Z,34.00
2018-06-03T11:25:22.791Z,37.20
2018-06-03T11:27:57.537Z,37.00
2018-06-03T11:30:32.321Z,35.30
2018-06-03T11:33:07.118Z,36.40
2018-06-03T11:35:41.805Z,34.50
2018-06-03T11:38:16.922Z,33.10
2018-06-03T11:40:51.697Z,33.90
2018-06-03T11:43:26.730Z,33.60
2018-06-03T11:46:01.569Z,33.90
2018-06-03T11:48:36.532Z,31.90
2018-06-03T11:51:11.366Z,31.40
2018-06-03T11:53:46.134Z,31.10
2018-06-03T11:56:21.267Z,30.80
2018-06-03T12:01:34.825Z,30.90
2018-06-03T12:04:09.625Z,30.90
2018-06-03T12:06:44.525Z,31.00
2018-06-03T12:09:19.434Z,30.00
2018-06-03T12:11:54.109Z,30.60
2018-06-03T12:14:28.857Z,29.80
2018-06-03T12:17:03.736Z,29.90
2018-06-03T12:19:38.461Z,29.80
2018-06-03T12:22:13.175Z,30.00
2018-06-03T12:24:47.930Z,30.00
2018-06-03T12:27:22.598Z,29.80
2018-06-03T12:29:57.322Z,28.90
2018-06-03T12:32:32.488Z,29.40
2018-06-03T12:35:07.327Z,30.00
2018-06-03T12:37:42.019Z,29.90
2018-06-03T12:40:16.911Z,30.10
2018-06-03T12:42:51.733Z,30.90
2018-06-03T12:45:27.222Z,31.20
2018-06-03T12:48:01.885Z,31.40
2018-06-03T12:50:36.749Z,33.90
2018-06-03T12:53:11.633Z,32.30
2018-06-03T12:55:46.453Z,32.00
2018-06-03T12:58:21.488Z,32.30
2018-06-03T13:00:56.325Z,33.90
2018-06-03T13:03:31.309Z,35.10
2018-06-03T13:06:06.405Z,33.90
2018-06-03T13:08:41.217Z,33.60
2018-06-03T13:11:16.431Z,33.70
2018-06-03T13:13:51.372Z,34.40
2018-06-03T13:16:26.306Z,35.40
2018-06-03T13:19:01.162Z,35.60
2018-06-03T13:21:35.901Z,35.10
2018-06-03T13:24:10.667Z,35.60
2018-06-03T13:26:45.296Z,35.90
2018-06-03T13:29:20.853Z,36.30
2018-06-03T13:31:55.598Z,36.30
2018-06-03T13:34:30.398Z,37.60
2018-06-03T13:37:05.704Z,38.30
2018-06-03T13:39:40.558Z,37.40
2018-06-03T13:42:15.462Z,38.20
2018-06-03T13:44:50.263Z,38.60
2018-06-03T13:49:59.701Z,39.80
2018-06-03T13:52:34.572Z,40.10
2018-06-03T13:55:09.339Z,39.20
2018-06-03T13:57:43.993Z,40.10
2018-06-03T14:00:18.794Z,40.00
2018-06-03T14:02:54.903Z,40.10
2018-06-03T14:05:29.552Z,40.00
2018-06-03T14:08:05.472Z,40.40
2018-06-03T14:10:40.359Z,41.00
2018-06-03T14:13:15.333Z,41.70
2018-06-03T14:15:50.072Z,42.90
2018-06-03T14:18:24.916Z,43.40
2018-06-03T14:20:59.695Z,43.60
2018-06-03T14:23:34.578Z,44.20
2018-06-03T14:26:09.451Z,45.50
2018-06-03T14:28:44.165Z,46.60
2018-06-03T14:31:19.173Z,46.50
2018-06-03T14:33:54.001Z,48.70
2018-06-03T14:36:28.909Z,47.70
2018-06-03T14:39:04.983Z,48.30
2018-06-03T14:41:39.662Z,47.60
2018-06-03T14:44:14.568Z,48.90
2018-06-03T14:49:24.103Z,50.00
2018-06-03T14:51:58.870Z,50.60
2018-06-03T14:54:33.583Z,51.00
2018-06-03T14:57:09.088Z,51.30
2018-06-03T14:59:44.136Z,51.50
2018-06-03T15:02:19.004Z,52.00
2018-06-03T15:04:53.891Z,53.00
2018-06-03T15:07:28.669Z,53.80
2018-06-03T15:10:03.409Z,54.20
2018-06-03T15:12:38.411Z,55.10
2018-06-03T15:15:13.171Z,55.60
2018-06-03T15:17:48.042Z,56.00
2018-06-03T15:20:24.056Z,56.30
2018-06-03T15:22:59.130Z,57.20
2018-06-03T15:25:33.932Z,57.10
2018-06-03T15:28:08.821Z,57.90
2018-06-03T15:30:43.536Z,58.70
2018-06-03T15:33:18.347Z,59.50
2018-06-03T15:35:53.257Z,59.80
2018-06-03T15:38:28.835Z,60.60
2018-06-03T15:41:03.458Z,61.10
2018-06-03T15:43:38.352Z,61.50
2018-06-03T15:46:12.989Z,61.60
2018-06-03T15:48:47.881Z,61.60
2018-06-03T15:51:22.734Z,62.10
2018-06-03T15:53:57.669Z,62.70
2018-06-03T15:56:32.539Z,62.70
2018-06-03T15:59:07.392Z,62.70
2018-06-03T16:01:42.206Z,62.20
2018-06-03T16:04:17.050Z,62.20
2018-06-03T16:06:51.804Z,62.90
2018-06-03T16:09:26.519Z,62.70
2018-06-03T16:12:01.505Z,62.50
2018-06-03T16:14:36.351Z,62.80
2018-06-03T16:17:11.163Z,61.80
2018-06-03T16:19:46.117Z,62.30
2018-06-03T16:22:20.921Z,62.70
2018-06-03T16:24:55.775Z,62.80
2018-06-03T16:27:30.730Z,63.00
2018-06-03T16:30:05.696Z,62.60
2018-06-03T16:32:40.562Z,63.10
2018-06-03T16:35:15.553Z,62.90
2018-06-03T16:37:50.603Z,61.40
2018-06-03T16:40:25.417Z,61.20
2018-06-03T16:43:00.466Z,61.90
2018-06-03T16:45:35.223Z,61.30
2018-06-03T16:48:10.152Z,62.30
2018-06-03T16:50:44.958Z,62.60
2018-06-03T16:53:19.913Z,62.50
2018-06-03T16:55:54.643Z,62.80
2018-06-03T16:58:29.489Z,63.80
2018-06-03T17:01:04.638Z,63.60
2018-06-03T17:03:39.369Z,64.70
2018-06-03T17:06:14.030Z,64.40
2018-06-03T17:08:48.850Z,65.20
2018-06-03T17:11:23.649Z,64.90
2018-06-03T17:13:58.522Z,65.30
2018-06-03T17:16:33.449Z,65.30
2018-06-03T17:19:08.437Z,63.60
2018-06-03T17:21:43.270Z,64.30
2018-06-03T17:24:18.135Z,65.30
2018-06-03T17:26:53.032Z,66.60
2018-06-03T17:29:27.978Z,66.80
2018-06-03T17:32:03.037Z,66.50
2018-06-03T17:34:38.147Z,67.50
2018-06-03T17:37:13.206Z,68.70
2018-06-03T17:39:48.244Z,69.50
2018-06-03T17:42:23.240Z,69.60
2018-06-03T17:44:58.402Z,69.90
2018-06-03T17:50:08.255Z,70.60
2018-06-03T17:52:43.183Z,71.60
2018-06-03T17:57:52.376Z,70.80
2018-06-03T18:00:27.886Z,71.70
2018-06-03T18:03:02.883Z,70.80
2018-06-03T18:05:37.696Z,72.10
2018-06-03T18:08:12.679Z,72.90
2018-06-03T18:10:47.704Z,72.40
2018-06-03T18:13:22.585Z,72.30
2018-06-03T18:15:57.570Z,71.80
2018-06-03T18:18:32.407Z,72.70
2018-06-03T18:21:08.352Z,73.10
2018-06-03T18:23:44.030Z,73.80
2018-06-03T18:26:19.073Z,73.40
2018-06-03T18:28:53.970Z,73.60
2018-06-03T18:31:28.815Z,73.20
2018-06-03T18:34:03.594Z,74.30
2018-06-03T18:36:38.549Z,74.10
2018-06-03T18:39:13.471Z,73.50
2018-06-03T18:41:48.378Z,74.60
2018-06-03T18:44:23.383Z,75.80
2018-06-03T18:46:58.448Z,76.40
2018-06-03T18:49:33.442Z,76.80
2018-06-03T18:52:08.234Z,77.10
2018-06-03T18:54:43.095Z,77.10
2018-06-03T18:59:52.925Z,77.60
2018-06-03T19:02:28.575Z,77.60
2018-06-03T19:05:04.294Z,77.90
2018-06-03T19:07:38.991Z,78.70
2018-06-03T19:10:14.229Z,79.20
2018-06-03T19:12:49.075Z,79.90
2018-06-03T19:15:23.886Z,80.50
2018-06-03T19:17:58.927Z,81.20
2018-06-03T19:20:34.436Z,80.80
2018-06-03T19:25:44.035Z,80.90
2018-06-03T19:28:19.030Z,81.80
2018-06-03T19:30:54.012Z,82.40
2018-06-03T19:33:29.102Z,82.40
2018-06-03T19:36:04.124Z,83.60
2018-06-03T19:38:39.121Z,83.90
2018-06-03T19:41:14.023Z,83.80
2018-06-03T19:43:48.914Z,84.60
2018-06-03T19:46:23.818Z,84.90
2018-06-03T19:48:58.599Z,84.80
2018-06-03T19:51:33.427Z,84.50
2018-06-03T19:54:08.600Z,85.50
2018-06-03T19:56:43.682Z,86.00
2018-06-03T19:59:18.622Z,87.50
2018-06-03T20:01:53.591Z,87.20
2018-06-03T20:04:28.550Z,88.00
2018-06-03T20:07:04.338Z,88.70
2018-06-03T20:09:39.396Z,89.90
2018-06-03T20:12:14.281Z,89.60
2018-06-03T20:14:49.259Z,89.70
2018-06-03T20:17:24.260Z,90.20
2018-06-03T20:19:58.986Z,90.20
2018-06-03T20:22:33.948Z,90.40
2018-06-03T20:25:08.744Z,90.50
2018-06-03T20:27:43.830Z,90.50
2018-06-03T20:30:18.669Z,90.60
2018-06-03T20:32:53.482Z,90.80
2018-06-03T20:35:28.261Z,90.90
2018-06-03T20:38:02.949Z,91.00
2018-06-03T20:43:12.449Z,91.30
2018-06-03T20:45:47.433Z,91.40
2018-06-03T20:48:22.316Z,91.60
2018-06-03T20:50:57.257Z,91.90
2018-06-03T20:53:33.101Z,91.90
2018-06-03T20:56:08.645Z,91.70
2018-06-03T20:58:43.725Z,91.90
2018-06-03T21:01:18.609Z,92.40
2018-06-03T21:03:53.445Z,92.20
2018-06-03T21:09:04.795Z,92.60
2018-06-03T21:11:39.857Z,92.70
2018-06-03T21:14:15.078Z,93.10
2018-06-03T21:16:49.956Z,93.60
2018-06-03T21:19:25.040Z,93.30
2018-06-03T21:22:00.147Z,93.80
2018-06-03T21:24:35.105Z,93.70
2018-06-03T21:27:10.212Z,93.60
2018-06-03T21:29:45.212Z,93.80
2018-06-03T21:32:20.829Z,93.80
2018-06-03T21:34:56.559Z,93.90
2018-06-03T21:37:31.921Z,94.20
2018-06-03T21:40:07.003Z,95.10
2018-06-03T21:42:42.161Z,94.70
2018-06-03T21:45:17.315Z,94.60
2018-06-03T21:47:52.543Z,94.70
2018-06-03T21:50:27.637Z,94.90
2018-06-03T21:53:02.670Z,95.00
2018-06-03T21:55:37.731Z,95.70
2018-06-03T21:58:13.124Z,94.70
2018-06-03T22:03:23.812Z,95.10
2018-06-03T22:05:59.934Z,95.50
2018-06-03T22:08:37.361Z,95.40
2018-06-03T22:11:14.242Z,96.00
2018-06-03T22:13:49.715Z,95.80
2018-06-03T22:16:25.436Z,95.90
2018-06-03T22:19:01.977Z,96.20
2018-06-03T22:21:40.113Z,96.20
2018-06-03T22:24:15.967Z,96.30
2018-06-03T22:26:51.808Z,96.30
2018-06-03T22:29:27.968Z,96.30
2018-06-03T22:32:03.922Z,96.10
2018-06-03T22:34:39.896Z,95.70
2018-06-03T22:37:15.651Z,95.50
2018-06-03T22:39:51.173Z,95.60
2018-06-03T22:42:26.718Z,95.10
2018-06-03T22:45:02.265Z,94.80
2018-06-03T22:47:37.911Z,95.20
2018-06-03T22:50:13.272Z,95.80
2018-06-03T22:52:49.206Z,94.80
2018-06-03T22:55:27.721Z,95.40
2018-06-03T22:58:03.507Z,95.80
2018-06-03T23:00:38.897Z,96.30
2018-06-03T23:03:16.550Z,96.20
2018-06-03T23:05:52.667Z,96.30
2018-06-03T23:08:28.460Z,96.70
2018-06-03T23:11:03.963Z,96.70
2018-06-03T23:13:40.225Z,96.60
2018-06-03T23:16:15.881Z,96.80
2018-06-03T23:18:51.228Z,96.70
2018-06-03T23:21:26.197Z,95.40
2018-06-03T23:24:01.181Z,95.50
2018-06-03T23:26:36.304Z,96.00
2018-06-03T23:29:11.131Z,96.30
2018-06-03T23:31:45.953Z,96.10
2018-06-03T23:34:21.004Z,95.70
2018-06-03T23:36:56.406Z,95.90
2018-06-03T23:39:31.757Z,96.40
2018-06-03T23:42:07.337Z,96.40
2018-06-03T23:44:42.333Z,96.20
2018-06-03T23:47:17.296Z,96.40
2018-06-03T23:49:52.431Z,96.70
2018-06-03T23:52:28.051Z,97.00
2018-06-03T23:55:03.652Z,97.10
2018-06-03T23:57:38.623Z,96.70
